Time;durP1;ratioP1;P1;durP2;ratioP2;P2;SDS_P1;SDS_P2;PMS_P1;PMS_P2;Temp;Humidity;BMP_temperature;BMP_pressure;BME280_temperature;BME280_humidity;BME280_pressure;Samples;Min_cycle;Max_cycle;Signal;HPM_P1;HPM_P2
2021/12/29 00:00:48;;;;;;;20.05;7.45;;;7.00;99.90;;;;;;5137855;27;20043;-66
2021/12/29 00:03:15;;;;;;;37.17;8.25;;;6.80;99.90;;;;;;5119461;27;20079;-67
2021/12/29 00:05:41;;;;;;;20.92;6.72;;;6.50;99.90;;;;;;5137729;27;20051;-67
2021/12/29 00:08:07;;;;;;;16.05;6.82;;;6.70;99.90;;;;;;5138118;27;20043;-67
2021/12/29 00:10:33;;;;;;;17.17;7.15;;;6.80;99.90;;;;;;5102660;27;20035;-68
2021/12/29 00:13:00;;;;;;;26.20;7.65;;;6.40;99.90;;;;;;5137685;27;20043;-67
2021/12/29 00:15:27;;;;;;;22.75;6.72;;;6.40;99.90;;;;;;5119355;27;20457;-67
2021/12/29 00:17:55;;;;;;;33.50;8.18;;;6.40;99.90;;;;;;5137565;27;20047;-67
2021/12/29 00:20:28;;;;;;;19.45;7.15;;;6.20;99.90;;;;;;5136856;27;20402;-68
2021/12/29 00:23:01;;;;;;;40.05;8.23;;;6.70;99.90;;;;;;5118398;27;20082;-67
2021/12/29 00:25:27;;;;;;;14.35;5.82;;;6.30;99.90;;;;;;5137039;27;20086;-67
2021/12/29 00:27:55;;;;;;;22.25;7.50;;;6.70;99.90;;;;;;5136972;27;20043;-67
2021/12/29 00:30:21;;;;;;;35.15;7.00;;;6.60;99.90;;;;;;5137353;27;20089;-67
2021/12/29 00:32:47;;;;;;;10.80;5.72;;;6.20;99.90;;;;;;5118974;27;20072;-67
2021/12/29 00:35:14;;;;;;;16.58;7.40;;;6.10;99.90;;;;;;5137690;27;20043;-67
2021/12/29 00:37:41;;;;;;;8.75;5.38;;;6.90;99.90;;;;;;5137270;27;20043;-67
2021/12/29 00:40:09;;;;;;;9.77;5.47;;;6.60;99.90;;;;;;5137142;27;20043;-67
2021/12/29 00:42:35;;;;;;;9.07;5.75;;;6.30;99.90;;;;;;5137136;27;20047;-67
2021/12/29 00:45:00;;;;;;;18.17;7.18;;;6.70;99.90;;;;;;5136933;27;20066;-67
2021/12/29 00:47:30;;;;;;;11.10;6.25;;;6.30;99.90;;;;;;5137011;27;20066;-67
2021/12/29 00:49:58;;;;;;;10.95;6.15;;;6.10;99.90;;;;;;5136677;27;20161;-68
2021/12/29 00:52:24;;;;;;;12.40;5.70;;;6.40;99.90;;;;;;5136258;27;20054;-67
2021/12/29 00:54:50;;;;;;;9.98;5.63;;;6.60;99.90;;;;;;5118320;27;20039;-67
2021/12/29 00:57:15;;;;;;;15.48;6.88;;;6.60;99.90;;;;;;5136843;27;20481;-67
2021/12/29 00:59:41;;;;;;;11.18;6.32;;;6.40;99.90;;;;;;5118625;27;20043;-67
2021/12/29 01:02:07;;;;;;;10.70;6.03;;;6.40;99.90;;;;;;5136403;27;20559;-67
2021/12/29 01:04:33;;;;;;;14.73;7.68;;;6.50;99.90;;;;;;5137298;27;20391;-67
2021/12/29 01:07:00;;;;;;;14.05;7.60;;;6.40;99.90;;;;;;5118546;27;20051;-67
2021/12/29 01:09:25;;;;;;;13.52;7.30;;;6.80;99.90;;;;;;5136631;27;20444;-67
2021/12/29 01:11:55;;;;;;;13.95;7.68;;;6.50;99.90;;;;;;5118213;27;20043;-67
2021/12/29 01:14:22;;;;;;;14.73;8.65;;;6.70;99.90;;;;;;5136472;27;20113;-67
2021/12/29 01:16:49;;;;;;;13.32;7.75;;;6.30;99.90;;;;;;5118168;27;20039;-67
2021/12/29 01:19:18;;;;;;;13.27;7.50;;;6.40;99.90;;;;;;5118081;27;20039;-67
2021/12/29 01:21:48;;;;;;;15.63;8.25;;;6.40;99.90;;;;;;5135668;27;20047;-67
2021/12/29 01:24:15;;;;;;;14.13;7.88;;;6.70;99.90;;;;;;5118493;27;20471;-67
2021/12/29 01:26:43;;;;;;;12.70;7.40;;;6.50;99.90;;;;;;5136226;27;20054;-67
2021/12/29 01:29:10;;;;;;;14.35;7.10;;;6.40;99.90;;;;;;5136155;27;20514;-67
2021/12/29 01:31:36;;;;;;;13.80;7.40;;;6.60;99.90;;;;;;5118538;27;20359;-67
2021/12/29 01:34:04;;;;;;;13.85;7.68;;;6.40;99.90;;;;;;5117851;27;20107;-67
2021/12/29 01:36:32;;;;;;;10.98;6.63;;;6.70;99.90;;;;;;5136449;27;20043;-67
2021/12/29 01:38:58;;;;;;;11.43;6.47;;;6.60;99.90;;;;;;5136108;27;20039;-67
2021/12/29 01:41:24;;;;;;;15.02;7.75;;;6.60;99.90;;;;;;5135998;27;20117;-67
2021/12/29 01:43:50;;;;;;;11.68;6.30;;;6.90;99.90;;;;;;5135917;27;20073;-68
2021/12/29 01:46:16;;;;;;;10.52;6.80;;;7.30;99.90;;;;;;5117621;27;20076;-67
2021/12/29 01:48:42;;;;;;;9.57;5.47;;;7.00;99.90;;;;;;5100168;27;20097;-67
2021/12/29 01:51:08;;;;;;;10.15;6.05;;;7.00;99.90;;;;;;5135131;27;20050;-67
2021/12/29 01:53:35;;;;;;;10.63;6.97;;;6.80;99.90;;;;;;5135716;27;20039;-67
2021/12/29 01:56:01;;;;;;;10.93;6.60;;;6.50;99.90;;;;;;5117631;27;20039;-67
2021/12/29 01:58:27;;;;;;;11.95;6.38;;;6.80;99.90;;;;;;5136209;27;20080;-67
2021/12/29 02:00:54;;;;;;;11.63;6.45;;;6.90;99.90;;;;;;5135947;27;20049;-67
2021/12/29 02:03:20;;;;;;;11.00;6.10;;;6.80;99.90;;;;;;5117374;27;20133;-67
2021/12/29 02:05:47;;;;;;;13.10;6.68;;;6.80;99.90;;;;;;5134593;27;20036;-67
2021/12/29 02:08:21;;;;;;;9.93;6.13;;;6.50;99.90;;;;;;5135430;27;20050;-67
2021/12/29 02:10:47;;;;;;;12.45;6.93;;;6.50;99.90;;;;;;5135410;27;20057;-68
2021/12/29 02:13:13;;;;;;;12.65;6.40;;;6.50;99.90;;;;;;5135368;27;20086;-67
2021/12/29 02:15:40;;;;;;;13.27;6.47;;;7.10;99.90;;;;;;5135617;27;20397;-67
2021/12/29 02:18:15;;;;;;;10.60;5.95;;;6.70;99.90;;;;;;5135419;27;20047;-68
2021/12/29 02:20:45;;;;;;;14.25;6.82;;;7.00;99.90;;;;;;5117196;27;20470;-67
2021/12/29 02:23:20;;;;;;;13.60;6.57;;;6.90;99.90;;;;;;5134914;27;20092;-67
2021/12/29 02:25:51;;;;;;;14.85;7.03;;;6.60;99.90;;;;;;5135132;27;20045;-68
2021/12/29 02:28:22;;;;;;;16.90;7.53;;;6.90;99.90;;;;;;5117392;27;20043;-67
2021/12/29 02:30:49;;;;;;;14.90;7.03;;;6.80;99.90;;;;;;5135161;27;20039;-67
2021/12/29 02:33:16;;;;;;;16.75;8.40;;;7.00;99.90;;;;;;5135063;27;20130;-67
2021/12/29 02:35:43;;;;;;;15.07;6.78;;;6.60;99.90;;;;;;5135016;27;20395;-67
2021/12/29 02:38:21;;;;;;;13.95;5.82;;;6.60;99.90;;;;;;5134962;27;20070;-67
2021/12/29 02:40:57;;;;;;;15.90;6.65;;;6.60;99.90;;;;;;5135267;27;20114;-67
2021/12/29 02:43:24;;;;;;;14.75;7.05;;;7.60;99.90;;;;;;5135793;27;20391;-67
2021/12/29 02:45:54;;;;;;;19.35;8.48;;;6.80;99.90;;;;;;5134722;27;20475;-67
2021/12/29 02:48:23;;;;;;;20.20;8.07;;;6.50;99.90;;;;;;5135582;27;20115;-67
2021/12/29 02:50:54;;;;;;;16.00;6.95;;;6.70;99.90;;;;;;5134453;27;20084;-66
2021/12/29 02:53:20;;;;;;;16.13;7.60;;;6.70;99.90;;;;;;5135156;27;20073;-67
2021/12/29 02:55:46;;;;;;;19.13;8.05;;;6.40;99.90;;;;;;5134708;27;20467;-67
2021/12/29 02:58:11;;;;;;;19.33;8.35;;;6.70;99.90;;;;;;5135008;27;20078;-67
2021/12/29 03:00:37;;;;;;;25.13;9.20;;;6.90;99.90;;;;;;5134681;28;20398;-67
2021/12/29 03:03:14;;;;;;;20.92;8.35;;;6.40;99.90;;;;;;5134644;28;20116;-67
2021/12/29 03:05:40;;;;;;;21.77;7.93;;;6.50;99.90;;;;;;5134742;28;20043;-68
2021/12/29 03:08:05;;;;;;;19.98;8.60;;;6.60;99.90;;;;;;5134533;28;20043;-67
2021/12/29 03:10:31;;;;;;;24.90;8.50;;;6.70;99.90;;;;;;5134553;28;20099;-67
2021/12/29 03:12:57;;;;;;;19.33;8.45;;;6.90;99.90;;;;;;5134757;28;20039;-67
2021/12/29 03:15:23;;;;;;;22.20;8.57;;;7.00;99.90;;;;;;5116342;28;20039;-67
2021/12/29 03:17:48;;;;;;;23.27;7.53;;;6.90;99.90;;;;;;5136737;27;20054;-67
2021/12/29 03:20:14;;;;;;;17.70;8.45;;;7.20;99.90;;;;;;5138693;27;20387;-67
2021/12/29 03:22:40;;;;;;;26.98;9.02;;;7.00;99.90;;;;;;5138055;27;20035;-67
2021/12/29 03:25:06;;;;;;;22.42;8.05;;;7.10;99.90;;;;;;5103493;27;20103;-67
2021/12/29 03:27:32;;;;;;;29.25;9.10;;;6.80;99.90;;;;;;5138819;27;20078;-67
2021/12/29 03:29:58;;;;;;;22.10;8.27;;;7.10;99.90;;;;;;5138688;27;20494;-67
2021/12/29 03:32:37;;;;;;;22.40;8.48;;;7.00;99.90;;;;;;5120884;27;20083;-69
2021/12/29 03:35:04;;;;;;;21.20;7.85;;;7.00;99.90;;;;;;5138593;27;20035;-68
2021/12/29 03:37:29;;;;;;;17.77;7.55;;;6.80;99.90;;;;;;5120312;27;20051;-68
2021/12/29 03:39:55;;;;;;;19.30;7.57;;;7.20;99.90;;;;;;5138303;27;20046;-67
2021/12/29 03:42:21;;;;;;;21.83;8.02;;;7.10;99.90;;;;;;5138361;27;20047;-67
2021/12/29 03:44:46;;;;;;;18.60;7.32;;;7.70;99.90;;;;;;5119879;27;20039;-67
2021/12/29 03:47:12;;;;;;;18.35;7.78;;;6.70;99.90;;;;;;5138280;27;20035;-68
2021/12/29 03:49:38;;;;;;;21.33;7.22;;;6.90;99.90;;;;;;5119776;27;20117;-67
2021/12/29 03:52:05;;;;;;;18.80;8.07;;;7.00;99.90;;;;;;5137569;27;20062;-67
2021/12/29 03:54:32;;;;;;;17.75;7.20;;;6.70;99.90;;;;;;5120106;27;20050;-68
2021/12/29 03:57:01;;;;;;;21.42;7.13;;;7.30;99.90;;;;;;5138026;27;20051;-68
2021/12/29 03:59:28;;;;;;;19.30;7.95;;;6.90;99.90;;;;;;5138288;27;20160;-68
2021/12/29 04:01:54;;;;;;;17.98;7.30;;;6.80;99.90;;;;;;5137929;27;20058;-67
2021/12/29 04:04:20;;;;;;;19.40;7.82;;;7.10;99.90;;;;;;5119773;27;20040;-68
2021/12/29 04:06:47;;;;;;;20.42;6.95;;;6.80;99.90;;;;;;5137857;27;20051;-68
2021/12/29 04:09:13;;;;;;;21.55;8.07;;;6.90;99.90;;;;;;5137787;27;20055;-68
2021/12/29 04:11:38;;;;;;;17.67;7.35;;;7.00;99.90;;;;;;5137755;27;20483;-68
2021/12/29 04:14:04;;;;;;;20.70;6.93;;;7.00;99.90;;;;;;5137675;27;20042;-67
2021/12/29 04:16:30;;;;;;;19.50;7.55;;;7.30;99.90;;;;;;5137684;27;20043;-68
2021/12/29 04:19:06;;;;;;;24.90;7.93;;;6.90;99.90;;;;;;5137586;27;20372;-67
2021/12/29 04:21:35;;;;;;;20.58;7.53;;;7.50;99.90;;;;;;5137082;27;20051;-67
2021/12/29 04:24:01;;;;;;;22.00;7.93;;;7.20;99.90;;;;;;5119208;27;20383;-67
2021/12/29 04:26:26;;;;;;;21.98;7.40;;;6.80;99.90;;;;;;5137119;27;20046;-67
2021/12/29 04:28:52;;;;;;;25.08;8.93;;;7.10;99.90;;;;;;5118069;27;20047;-68
2021/12/29 04:31:18;;;;;;;21.10;7.82;;;6.90;99.90;;;;;;5102167;27;20122;-68
2021/12/29 04:33:44;;;;;;;28.60;7.90;;;7.10;99.90;;;;;;5118975;27;20046;-68
2021/12/29 04:36:09;;;;;;;26.67;8.65;;;7.10;99.90;;;;;;5119616;27;20066;-68
2021/12/29 04:38:35;;;;;;;21.95;8.52;;;6.80;99.90;;;;;;5136887;27;20039;-68
2021/12/29 04:41:02;;;;;;;20.95;7.97;;;7.20;99.90;;;;;;5137214;27;20035;-68
2021/12/29 04:43:28;;;;;;;25.60;9.02;;;7.00;99.90;;;;;;5137133;27;20055;-68
2021/12/29 04:45:54;;;;;;;22.70;8.35;;;7.10;99.90;;;;;;5136930;27;20394;-68
2021/12/29 04:48:20;;;;;;;24.52;9.13;;;7.20;99.90;;;;;;5137229;27;20525;-68
2021/12/29 04:50:53;;;;;;;28.08;9.10;;;7.20;99.90;;;;;;5137220;27;20054;-68
2021/12/29 04:53:22;;;;;;;25.85;9.35;;;7.30;99.90;;;;;;5118341;27;20467;-68
2021/12/29 04:55:49;;;;;;;29.00;9.95;;;7.10;99.90;;;;;;5136856;27;20039;-67
2021/12/29 04:58:16;;;;;;;32.53;9.98;;;7.30;99.90;;;;;;5118767;27;20050;-68
2021/12/29 05:00:42;;;;;;;35.13;11.85;;;7.30;99.90;;;;;;5136808;27;20047;-68
2021/12/29 05:03:07;;;;;;;33.92;11.23;;;7.40;99.90;;;;;;5136722;27;20379;-68
2021/12/29 05:10:45;;;;;;;38.63;13.23;;;7.40;99.90;;;;;;5136610;27;20142;-67
2021/12/29 05:13:11;;;;;;;38.90;13.15;;;7.10;99.90;;;;;;5136748;27;20086;-68
2021/12/29 05:15:36;;;;;;;42.17;13.43;;;7.20;99.90;;;;;;5136529;27;20046;-67
2021/12/29 05:18:03;;;;;;;45.78;14.63;;;7.40;99.90;;;;;;5136435;27;20043;-68
2021/12/29 05:20:30;;;;;;;37.88;13.85;;;6.90;99.90;;;;;;5101460;27;20139;-68
2021/12/29 05:22:57;;;;;;;39.40;14.10;;;7.50;99.90;;;;;;5135692;27;20043;-68
2021/12/29 05:25:24;;;;;;;46.53;15.30;;;7.30;99.90;;;;;;5118050;27;20095;-68
2021/12/29 05:27:50;;;;;;;37.80;12.98;;;7.30;99.90;;;;;;5136221;27;20058;-68
2021/12/29 05:30:16;;;;;;;42.20;13.40;;;7.20;99.90;;;;;;5136221;27;20055;-68
2021/12/29 05:32:42;;;;;;;34.78;13.50;;;7.20;99.90;;;;;;5136459;27;20438;-67
2021/12/29 05:35:09;;;;;;;39.13;13.32;;;7.20;99.90;;;;;;5136233;27;20113;-67
2021/12/29 05:37:35;;;;;;;42.75;13.48;;;7.20;99.90;;;;;;5136647;27;20050;-68
2021/12/29 05:40:01;;;;;;;41.42;13.30;;;7.20;99.90;;;;;;5136025;27;20046;-68
2021/12/29 05:42:26;;;;;;;44.08;13.25;;;7.40;99.90;;;;;;5135945;27;20086;-67
2021/12/29 05:44:52;;;;;;;45.13;13.02;;;7.20;99.90;;;;;;5135802;27;20043;-68
2021/12/29 05:47:18;;;;;;;56.03;15.63;;;7.60;99.90;;;;;;5135840;27;20039;-68
2021/12/29 05:49:43;;;;;;;43.90;12.65;;;7.30;99.90;;;;;;5113634;28;20058;-68
2021/12/29 05:52:10;;;;;;;52.28;14.70;;;7.20;99.90;;;;;;5114686;28;20049;-68
2021/12/29 05:54:36;;;;;;;37.15;11.88;;;7.30;99.90;;;;;;5115199;28;20093;-68
2021/12/29 05:57:02;;;;;;;38.25;12.18;;;7.30;99.90;;;;;;5114033;28;20047;-68
2021/12/29 05:59:28;;;;;;;40.13;14.27;;;7.20;99.90;;;;;;5115145;28;20050;-68
2021/12/29 06:01:54;;;;;;;31.17;13.02;;;7.00;99.90;;;;;;5115056;28;20126;-68
2021/12/29 06:04:19;;;;;;;45.45;15.57;;;7.50;99.90;;;;;;5114950;28;20047;-68
2021/12/29 06:06:45;;;;;;;43.17;14.48;;;7.20;99.90;;;;;;5113729;28;20070;-68
2021/12/29 06:09:11;;;;;;;37.47;14.02;;;7.70;99.90;;;;;;5114934;28;20090;-68
2021/12/29 06:11:36;;;;;;;39.22;13.80;;;7.30;99.90;;;;;;5113717;28;20494;-68
2021/12/29 06:14:02;;;;;;;48.83;15.85;;;7.40;99.90;;;;;;5114707;28;20073;-68
2021/12/29 06:16:28;;;;;;;35.80;13.55;;;7.30;99.90;;;;;;5115029;28;20036;-68
2021/12/29 06:18:54;;;;;;;36.47;13.68;;;7.20;99.90;;;;;;5115045;28;20054;-68
2021/12/29 06:21:20;;;;;;;44.25;15.18;;;7.60;99.90;;;;;;5112857;28;20043;-67
2021/12/29 06:23:47;;;;;;;40.72;14.75;;;7.50;99.90;;;;;;5114632;28;20058;-68
2021/12/29 06:26:13;;;;;;;29.55;11.85;;;7.50;99.90;;;;;;5114599;28;20039;-68
2021/12/29 06:28:39;;;;;;;34.58;13.00;;;7.30;99.90;;;;;;5114584;28;20047;-68
2021/12/29 06:31:06;;;;;;;27.00;12.10;;;7.50;99.90;;;;;;5113337;28;20445;-68
2021/12/29 06:33:32;;;;;;;35.10;12.13;;;7.50;99.90;;;;;;5114501;28;20040;-68
2021/12/29 06:35:58;;;;;;;32.03;12.30;;;7.60;99.90;;;;;;5114470;28;20039;-68
2021/12/29 06:38:23;;;;;;;28.13;12.70;;;7.70;99.90;;;;;;5114410;28;20441;-68
2021/12/29 06:40:49;;;;;;;28.60;12.18;;;7.50;99.90;;;;;;5114403;28;20480;-68
2021/12/29 06:43:15;;;;;;;30.23;12.13;;;7.10;99.90;;;;;;5114360;28;20073;-68
2021/12/29 06:45:41;;;;;;;30.98;12.82;;;7.30;99.90;;;;;;5113095;28;20044;-68
2021/12/29 06:48:07;;;;;;;31.80;12.00;;;7.30;99.90;;;;;;5112887;28;20139;-68
2021/12/29 06:50:33;;;;;;;27.15;11.00;;;7.30;99.90;;;;;;5113452;28;20126;-68
2021/12/29 06:52:59;;;;;;;29.42;11.43;;;7.50;99.90;;;;;;5113251;28;20043;-68
2021/12/29 06:55:25;;;;;;;32.17;12.25;;;7.60;99.90;;;;;;5114206;28;20039;-68
2021/12/29 06:57:51;;;;;;;32.50;12.07;;;7.20;99.90;;;;;;5113211;28;20047;-68
2021/12/29 07:00:17;;;;;;;26.65;11.75;;;7.50;99.90;;;;;;5114110;28;20055;-68
2021/12/29 07:02:43;;;;;;;35.08;13.07;;;7.30;99.90;;;;;;5113196;28;20395;-68
2021/12/29 07:05:08;;;;;;;34.17;12.00;;;7.60;99.90;;;;;;5114154;28;20047;-69
2021/12/29 07:07:35;;;;;;;30.85;12.23;;;7.60;99.90;;;;;;5114135;28;20052;-68
2021/12/29 07:10:02;;;;;;;25.38;11.85;;;7.60;99.90;;;;;;5114189;28;20051;-68
2021/12/29 07:12:28;;;;;;;42.92;14.30;;;7.60;99.90;;;;;;5114399;28;20250;-68
2021/12/29 07:14:54;;;;;;;35.08;13.70;;;7.40;99.90;;;;;;5113126;28;20043;-68
2021/12/29 07:17:20;;;;;;;33.85;14.38;;;7.40;99.90;;;;;;5113447;28;20056;-68
2021/12/29 07:19:45;;;;;;;33.15;13.68;;;7.40;99.90;;;;;;5113697;28;20036;-68
2021/12/29 07:22:11;;;;;;;30.25;13.18;;;7.30;99.90;;;;;;5111886;28;20100;-68
2021/12/29 07:24:37;;;;;;;35.83;14.90;;;7.30;99.90;;;;;;5112667;28;20035;-68
2021/12/29 07:27:03;;;;;;;35.40;14.43;;;7.40;99.90;;;;;;5113884;28;20131;-68
2021/12/29 07:29:30;;;;;;;39.38;15.70;;;7.50;99.90;;;;;;5113844;28;20388;-68
2021/12/29 07:31:58;;;;;;;33.67;13.38;;;7.40;99.90;;;;;;5113849;28;20104;-68
2021/12/29 07:34:24;;;;;;;32.95;13.95;;;7.40;99.90;;;;;;5112888;28;20518;-68
2021/12/29 07:36:51;;;;;;;38.38;13.90;;;7.70;99.90;;;;;;5113819;28;20092;-67
2021/12/29 07:39:18;;;;;;;38.20;14.07;;;7.60;99.90;;;;;;5114381;28;20105;-68
2021/12/29 07:41:45;;;;;;;32.10;12.95;;;7.50;99.90;;;;;;5112935;28;20074;-68
2021/12/29 07:44:13;;;;;;;30.73;13.65;;;7.50;99.90;;;;;;5112724;28;20440;-68
2021/12/29 07:46:41;;;;;;;36.70;14.55;;;7.50;99.90;;;;;;5113815;28;20169;-67
2021/12/29 07:49:07;;;;;;;40.22;14.82;;;7.60;99.90;;;;;;5125545;28;20159;-68
2021/12/29 07:51:33;;;;;;;41.72;14.65;;;7.40;99.90;;;;;;5133626;28;20491;-67
2021/12/29 07:53:59;;;;;;;33.30;13.80;;;7.30;99.90;;;;;;5116062;28;20090;-68
2021/12/29 07:56:26;;;;;;;34.85;14.95;;;7.70;99.90;;;;;;5134148;28;20046;-68
2021/12/29 07:58:52;;;;;;;36.40;13.77;;;7.50;99.90;;;;;;5134152;28;20054;-68
2021/12/29 08:01:18;;;;;;;33.30;13.52;;;7.50;99.90;;;;;;5134123;28;20036;-67
2021/12/29 08:03:44;;;;;;;35.53;12.77;;;7.70;99.90;;;;;;5116334;27;20086;-68
2021/12/29 08:06:09;;;;;;;41.63;14.82;;;7.50;99.90;;;;;;5138053;27;20179;-68
2021/12/29 08:08:35;;;;;;;33.15;13.25;;;7.40;99.90;;;;;;5137767;27;20100;-68
2021/12/29 08:11:01;;;;;;;45.47;15.40;;;7.50;99.90;;;;;;5137770;27;20043;-68
2021/12/29 08:13:27;;;;;;;29.58;13.20;;;7.80;99.90;;;;;;5119315;27;20491;-68
2021/12/29 08:15:53;;;;;;;34.90;13.57;;;7.70;99.90;;;;;;5137627;27;20104;-68
2021/12/29 08:18:19;;;;;;;36.05;14.23;;;7.40;99.90;;;;;;5137612;27;20096;-68
2021/12/29 08:20:44;;;;;;;33.13;13.50;;;7.50;99.90;;;;;;5137474;27;20047;-68
2021/12/29 08:23:11;;;;;;;31.35;13.13;;;7.70;99.90;;;;;;5118746;27;20112;-67
2021/12/29 08:25:38;;;;;;;25.85;13.00;;;7.70;99.90;;;;;;5137432;27;20035;-68
2021/12/29 08:28:04;;;;;;;35.15;13.63;;;7.50;99.90;;;;;;5137490;27;20039;-68
2021/12/29 08:30:31;;;;;;;40.53;15.02;;;7.60;99.90;;;;;;5137777;27;20051;-67
2021/12/29 08:32:56;;;;;;;48.28;15.70;;;7.50;99.90;;;;;;5137347;27;20383;-67
2021/12/29 08:35:23;;;;;;;39.50;14.70;;;7.20;99.90;;;;;;5119207;27;20051;-68
2021/12/29 08:37:49;;;;;;;47.00;14.27;;;7.80;99.90;;;;;;5119148;27;20058;-68
2021/12/29 08:40:16;;;;;;;30.85;12.73;;;7.40;99.90;;;;;;5137213;27;20108;-68
2021/12/29 08:42:43;;;;;;;39.42;14.65;;;7.40;99.90;;;;;;5137184;27;20043;-67
2021/12/29 08:45:12;;;;;;;48.15;14.88;;;7.40;99.90;;;;;;5118944;27;20444;-68
2021/12/29 08:47:38;;;;;;;38.28;13.52;;;7.60;99.90;;;;;;5134844;27;20045;-67
2021/12/29 08:50:07;;;;;;;35.63;13.32;;;7.70;99.90;;;;;;5114867;28;20056;-67
2021/12/29 08:52:33;;;;;;;28.60;11.55;;;7.40;99.90;;;;;;5114846;28;20043;-68
2021/12/29 08:54:59;;;;;;;27.10;11.68;;;7.50;99.90;;;;;;5116355;28;20048;-68
2021/12/29 08:57:25;;;;;;;35.08;12.48;;;7.60;99.90;;;;;;5116375;28;20122;-67
2021/12/29 08:59:51;;;;;;;36.80;12.18;;;7.60;99.90;;;;;;5115604;28;20540;-68
2021/12/29 09:02:16;;;;;;;42.25;14.00;;;7.10;99.90;;;;;;5115586;28;20047;-69
2021/12/29 09:04:42;;;;;;;32.15;12.02;;;7.60;99.90;;;;;;5116121;28;20054;-69
2021/12/29 09:07:08;;;;;;;37.65;13.30;;;7.70;99.90;;;;;;5115171;28;20059;-69
2021/12/29 09:09:33;;;;;;;30.58;12.15;;;7.50;99.90;;;;;;5115866;28;20503;-69
2021/12/29 09:11:59;;;;;;;25.45;10.60;;;7.50;99.90;;;;;;5115419;28;20047;-68
2021/12/29 09:14:25;;;;;;;33.20;12.30;;;7.60;99.90;;;;;;5115350;28;20044;-68
2021/12/29 09:16:51;;;;;;;23.25;10.60;;;7.60;99.90;;;;;;5115406;28;20044;-69
2021/12/29 09:19:17;;;;;;;25.77;10.95;;;7.70;99.90;;;;;;5115214;28;20043;-70
2021/12/29 09:21:44;;;;;;;44.72;13.73;;;7.50;99.90;;;;;;5113571;28;20044;-69
2021/12/29 09:24:11;;;;;;;26.75;11.65;;;7.30;99.90;;;;;;5112825;28;20043;-69
2021/12/29 09:26:37;;;;;;;32.92;11.65;;;7.60;99.90;;;;;;5115256;28;20036;-69
2021/12/29 09:29:04;;;;;;;24.73;10.32;;;7.70;99.90;;;;;;5115293;28;20083;-69
2021/12/29 09:31:30;;;;;;;27.60;10.27;;;7.30;99.90;;;;;;5112667;28;20391;-69
2021/12/29 09:33:56;;;;;;;31.30;11.50;;;7.50;99.90;;;;;;5114187;28;20035;-68
2021/12/29 09:36:23;;;;;;;26.80;9.95;;;7.40;99.90;;;;;;5115161;28;20050;-69
2021/12/29 09:38:48;;;;;;;25.15;8.77;;;7.40;99.90;;;;;;5112327;28;20491;-68
2021/12/29 09:41:17;;;;;;;23.70;8.50;;;7.50;99.90;;;;;;5114686;28;20047;-68
2021/12/29 09:43:44;;;;;;;24.13;9.70;;;7.70;99.90;;;;;;5114989;28;20040;-69
2021/12/29 09:46:10;;;;;;;20.58;8.25;;;7.40;99.90;;;;;;5112357;28;20032;-69
2021/12/29 09:48:36;;;;;;;23.85;8.75;;;7.30;99.90;;;;;;5116139;27;20044;-68
2021/12/29 09:51:03;;;;;;;21.25;9.77;;;8.00;99.90;;;;;;5135584;27;20146;-69
2021/12/29 09:53:29;;;;;;;17.00;7.82;;;7.40;99.90;;;;;;5113576;27;20130;-69
2021/12/29 09:55:55;;;;;;;17.40;8.05;;;7.50;99.90;;;;;;5116897;27;20130;-69
2021/12/29 09:58:21;;;;;;;20.48;8.60;;;7.90;99.90;;;;;;5106573;27;20043;-68
2021/12/29 10:00:55;;;;;;;19.15;8.70;;;8.10;99.90;;;;;;5090090;27;20055;-67
2021/12/29 10:03:23;;;;;;;19.33;8.00;;;7.50;99.90;;;;;;5095351;27;20047;-67
2021/12/29 10:05:52;;;;;;;18.33;8.98;;;7.90;99.90;;;;;;5090778;27;20046;-67
2021/12/29 10:08:37;;;;;;;17.83;8.77;;;7.70;99.90;;;;;;5073939;27;20131;-67
2021/12/29 10:11:12;;;;;;;21.70;8.45;;;7.60;99.90;;;;;;5095597;27;20109;-68
2021/12/29 10:13:42;;;;;;;18.75;8.77;;;8.00;99.90;;;;;;5091599;27;20077;-68
2021/12/29 10:16:11;;;;;;;20.30;8.30;;;8.30;99.90;;;;;;5089591;27;20040;-68
2021/12/29 10:18:40;;;;;;;23.27;9.48;;;7.70;99.90;;;;;;5090313;27;20183;-68
2021/12/29 10:21:09;;;;;;;29.75;10.23;;;8.00;99.90;;;;;;5087232;27;20122;-68
2021/12/29 10:23:47;;;;;;;27.88;9.85;;;7.70;99.90;;;;;;5094168;27;20088;-68
2021/12/29 10:26:17;;;;;;;26.30;9.80;;;7.90;99.90;;;;;;5093500;27;20039;-68
2021/12/29 10:28:49;;;;;;;26.02;8.65;;;7.80;99.90;;;;;;5090801;27;20047;-67
2021/12/29 10:31:19;;;;;;;22.88;9.20;;;7.90;99.90;;;;;;5090594;27;20057;-68
2021/12/29 10:33:49;;;;;;;24.88;8.38;;;7.90;99.90;;;;;;5069329;27;20133;-68
2021/12/29 10:36:31;;;;;;;20.40;8.60;;;8.00;99.90;;;;;;5098083;27;20050;-68
2021/12/29 10:39:20;;;;;;;27.67;9.70;;;7.80;99.90;;;;;;5076114;27;20059;-68
2021/12/29 10:41:55;;;;;;;35.58;11.18;;;7.70;99.90;;;;;;5079159;27;20043;-68
2021/12/29 10:44:32;;;;;;;21.58;9.30;;;8.00;99.90;;;;;;5077931;28;20040;-68
2021/12/29 10:47:00;;;;;;;21.13;8.10;;;7.90;99.90;;;;;;5092214;27;20060;-69
2021/12/29 10:49:29;;;;;;;41.28;12.05;;;8.10;99.90;;;;;;5094629;27;20055;-67
2021/12/29 10:51:59;;;;;;;32.75;9.75;;;7.80;99.90;;;;;;5091430;27;20143;-68
2021/12/29 10:54:27;;;;;;;37.90;10.30;;;7.90;99.90;;;;;;5096052;27;20066;-68
2021/12/29 10:57:05;;;;;;;24.10;9.02;;;8.00;99.90;;;;;;5098090;27;20046;-68
2021/12/29 10:59:35;;;;;;;41.90;9.27;;;7.50;99.90;;;;;;5091936;28;20133;-68
2021/12/29 11:02:01;;;;;;;42.17;12.35;;;7.90;99.90;;;;;;5077576;28;20039;-68
2021/12/29 11:04:28;;;;;;;43.58;11.30;;;8.00;99.90;;;;;;5093040;28;20517;-68
2021/12/29 11:06:56;;;;;;;20.85;7.97;;;8.30;99.90;;;;;;5081797;28;20059;-69
2021/12/29 11:09:26;;;;;;;20.38;8.20;;;8.50;99.90;;;;;;5107353;28;20047;-71
2021/12/29 11:11:53;;;;;;;18.00;8.02;;;8.00;99.90;;;;;;5102356;28;20050;-72
2021/12/29 11:14:24;;;;;;;24.20;8.82;;;8.10;99.90;;;;;;5081676;28;20576;-74
2021/12/29 11:17:19;;;;;;;17.52;7.50;;;8.20;99.90;;;;;;5097555;28;20481;-72
2021/12/29 11:19:51;;;;;;;15.73;7.82;;;8.10;99.90;;;;;;5096469;28;20420;-72
2021/12/29 11:22:21;;;;;;;17.98;7.03;;;8.50;99.90;;;;;;5100101;28;20475;-68
2021/12/29 11:24:57;;;;;;;17.27;6.82;;;8.00;99.90;;;;;;5083921;28;20058;-67
2021/12/29 11:27:23;;;;;;;17.38;7.93;;;8.10;99.90;;;;;;5084004;28;20046;-68
2021/12/29 11:29:53;;;;;;;15.75;7.72;;;8.50;99.90;;;;;;5081334;28;20684;-68
2021/12/29 11:32:26;;;;;;;15.20;6.63;;;8.20;99.90;;;;;;5098824;28;20138;-69
2021/12/29 11:35:12;;;;;;;11.75;6.28;;;8.20;99.90;;;;;;5082536;28;20035;-69
2021/12/29 11:37:44;;;;;;;13.05;5.82;;;8.50;99.90;;;;;;5101998;27;20038;-68
2021/12/29 11:40:12;;;;;;;11.70;5.93;;;8.20;99.90;;;;;;5086416;27;21386;-68
2021/12/29 11:42:38;;;;;;;11.45;5.13;;;8.60;99.90;;;;;;5104625;27;20038;-68
2021/12/29 11:45:05;;;;;;;10.68;5.65;;;8.30;99.90;;;;;;5084376;27;20051;-69
2021/12/29 11:47:31;;;;;;;13.27;6.32;;;8.20;99.90;;;;;;5100783;27;20054;-69
2021/12/29 11:49:57;;;;;;;10.73;5.10;;;8.50;99.90;;;;;;5105758;27;20047;-69
2021/12/29 11:52:54;;;;;;;9.52;4.55;;;8.60;99.90;;;;;;5084418;27;20663;-69
2021/12/29 11:55:24;;;;;;;9.35;4.18;;;8.30;99.90;;;;;;5106567;27;20437;-69
2021/12/29 11:57:50;;;;;;;9.10;4.03;;;8.50;99.90;;;;;;5103175;27;20130;-68
2021/12/29 12:00:22;;;;;;;9.30;4.65;;;8.20;99.90;;;;;;5103832;27;20078;-69
2021/12/29 12:02:50;;;;;;;9.93;4.50;;;8.40;99.90;;;;;;5104545;27;20079;-69
2021/12/29 12:05:17;;;;;;;9.15;4.32;;;8.70;99.90;;;;;;5108931;27;20046;-68
2021/12/29 12:07:44;;;;;;;8.45;3.88;;;8.30;99.90;;;;;;5110896;27;20047;-71
2021/12/29 12:10:33;;;;;;;8.93;4.35;;;8.40;99.90;;;;;;5106410;27;20054;-72
2021/12/29 12:12:59;;;;;;;10.05;4.03;;;8.20;99.90;;;;;;5085723;27;20051;-70
2021/12/29 12:15:34;;;;;;;9.82;4.50;;;8.50;99.90;;;;;;5106140;27;20491;-70
2021/12/29 12:18:09;;;;;;;9.75;4.47;;;8.60;99.90;;;;;;5087792;27;20503;-70
2021/12/29 12:20:45;;;;;;;13.68;5.20;;;8.80;99.90;;;;;;5116483;27;20050;-71
2021/12/29 12:23:29;;;;;;;13.63;5.47;;;8.30;99.90;;;;;;5116154;27;20037;-74
2021/12/29 12:26:08;;;;;;;11.82;5.20;;;8.40;99.90;;;;;;5135003;27;20043;-73
2021/12/29 12:28:44;;;;;;;11.13;4.65;;;8.50;99.90;;;;;;5134909;27;20062;-81
2021/12/29 12:31:25;;;;;;;13.18;5.68;;;8.40;99.90;;;;;;5102058;27;20041;-72
2021/12/29 12:33:52;;;;;;;13.98;5.60;;;8.20;99.90;;;;;;5116181;27;20439;-74
2021/12/29 12:36:18;;;;;;;13.82;5.30;;;8.30;99.90;;;;;;5136832;27;20083;-77
2021/12/29 12:38:43;;;;;;;12.20;6.45;;;8.70;99.90;;;;;;5136843;27;20121;-77
2021/12/29 12:41:18;;;;;;;13.10;5.88;;;8.40;99.90;;;;;;5134000;27;20046;-76
2021/12/29 12:43:59;;;;;;;11.05;5.72;;;8.30;99.90;;;;;;5101794;27;20155;-77
2021/12/29 12:46:43;;;;;;;12.85;5.95;;;8.40;99.90;;;;;;5136318;27;20046;-76
2021/12/29 12:49:19;;;;;;;12.95;5.95;;;8.50;99.90;;;;;;5136597;27;20046;-77
2021/12/29 12:51:54;;;;;;;14.13;5.53;;;8.30;99.90;;;;;;5135918;27;20483;-75